Rib Mountain, Wisconsin
Current Conditions -  °F | °C
As of 3:54 PM on Monday 24 Nov 2014 (Local Time) from KAUW Reporting Station
Moderate Snow Moderate Snow  
Wind Chill: 17°   Ceiling: 1000
Heat Index: 29°   Visibility: 0.5mi
Dew Point: 27°   Wind: 17mph
Humidity: 92%   Direction: 330°NNW
Pressure: 29.31"   Gusts: 25mph
Location:  45.0598°N, 89.4871°W
Report Text: KAUW 242154Z AUTO 33015G22KT 1/2SM SN FZFG VV010 M02/M03 A2931 RMK AO2 PK WND 33027/2101 PRESRR SLP940 P0002 T10171028
Loading
Personal Weather Stations






























Interactive Weather Map New forecast layout! Learn more

10-Day Weather Forecast

Advertisements
Track Severe Weather on mobile